Long Beach, CA (90832)

8:02 PM PST on January 26, 2015 (GMT -0800)
Aquarium of the Pacific MACC | Change Station
CLOSE
Current Station
Personal Weather Station
Location: Long Beach, CA
Elevation: 23 ft
Nearby Weather Stations

Elev 23 ft 33.76 °N, 118.20 °W | Updated 30 seconds ago

Rain
Rain
59.1 °F
Feels Like 59.1 °F
N
1.0
Wind Variable Wind from North
Gusts 2.0 mph

Today
High -- | Low -- °F
--% Chance of Precip.
Yesterday
High -- | Low -- °F
Precip. -- in
6:53 AM 5:17 PM
Waxing Crescent, 50% visible
Pressure 30.09 in
Visibility 10.0 miles
Clouds Mostly Cloudy 4500 ft
Overcast 6500 ft
Dew Point 55 °F
Humidity 86%
Rainfall 0.12 in
Snow Depth Not available.
UV 0 out of 12
Pollen 7.60 out of 12
Air Quality Not available.
Flu Activity Not available.
METAR KLGB 270353Z 11005KT 10SM RA BKN045 OVC065 14/12 A3009 RMK AO2 SLP189 P0001 T01390122

More Conditions Fewer Conditions

Pressure 30.09 in
Visibility 10.0 miles
Clouds Mostly Cloudy 4500 ft
Overcast 6500 ft
Dew Point 55 °F
Humidity 86%
Rainfall 0.12 in
Snow Depth Not available.
UV 0 out of 12
Pollen 7.60 out of 12
Air Quality Not available.
Flu Activity Not available.
METAR KLGB 270353Z 11005KT 10SM RA BKN045 OVC065 14/12 A3009 RMK AO2 SLP189 P0001 T01390122

More Conditions Fewer Conditions

10-Day Weather Forecast

Almanac

Astronomy

Jan. 26, 2015 Rise Set
Actual Time
Civil Twilight
Nautical Twilight
Astronomical Twilight
Moon
Length of Visible Light
Length of Day
Tomorrow will be .
, % of the Moon is Illuminated

Today's Extremes

State Highs State Lows

Community

WunderPhotos

Upload Photos

1,790,520 photos uploaded!

WunderBlogs® & News

Nearby

Air Quality

  Air Quality AQ Index Pollutant
Not available.

Snow Depth

Station Depth Elevation

Earthquake Activity

City Distance Mag. Time & Date
Minimum magnitude displayed is 2.5.

Coastal Water Temperatures

Place Temperature

Nearby Weather Stations